Time;durP1;ratioP1;P1;durP2;ratioP2;P2;SDS_P1;SDS_P2;PMS_P1;PMS_P2;Temp;Humidity;BMP_temperature;BMP_pressure;BME280_temperature;BME280_humidity;BME280_pressure;Samples;Min_cycle;Max_cycle;Signal;HPM_P1;HPM_P2
2023/10/08 00:02:10;;;;;;;11.98;5.38;;;16.00;99.90;;;;;;4989301;28;20058;-72
2023/10/08 00:04:39;;;;;;;9.15;4.97;;;15.90;99.90;;;;;;4990886;28;20034;-73
2023/10/08 00:07:08;;;;;;;9.80;4.85;;;15.90;99.90;;;;;;4991577;28;20450;-73
2023/10/08 00:09:37;;;;;;;11.27;4.70;;;16.00;99.90;;;;;;4992791;28;20113;-72
2023/10/08 00:12:04;;;;;;;8.80;4.80;;;15.90;99.90;;;;;;4994135;28;20427;-72
2023/10/08 00:14:31;;;;;;;14.32;4.60;;;15.80;99.90;;;;;;4994731;28;20125;-72
2023/10/08 00:16:57;;;;;;;10.88;5.00;;;15.80;99.90;;;;;;4991302;28;20034;-72
2023/10/08 00:19:24;;;;;;;12.45;5.57;;;15.70;99.90;;;;;;4998603;28;20030;-72
2023/10/08 00:21:53;;;;;;;9.32;4.50;;;15.70;99.90;;;;;;5005409;28;20385;-72
2023/10/08 00:24:26;;;;;;;8.70;4.60;;;15.90;99.90;;;;;;4997479;28;20026;-72
2023/10/08 00:26:54;;;;;;;11.15;5.47;;;16.00;99.90;;;;;;4989003;28;20018;-72
2023/10/08 00:29:23;;;;;;;9.80;4.65;;;16.10;99.90;;;;;;4998634;28;20113;-72
2023/10/08 00:31:49;;;;;;;9.43;4.22;;;16.20;99.90;;;;;;5000168;28;20109;-73
2023/10/08 00:34:17;;;;;;;8.88;5.10;;;16.10;99.90;;;;;;4996577;28;20100;-72
2023/10/08 00:36:45;;;;;;;7.88;4.53;;;15.90;99.90;;;;;;4997905;28;20101;-72
2023/10/08 00:39:22;;;;;;;9.57;5.63;;;15.90;99.90;;;;;;4990363;28;20477;-73
2023/10/08 00:41:49;;;;;;;9.18;5.45;;;15.70;99.90;;;;;;4997296;28;20026;-72
2023/10/08 00:44:30;;;;;;;8.95;5.15;;;15.60;99.90;;;;;;5000728;28;20029;-73
2023/10/08 00:47:00;;;;;;;8.80;4.85;;;15.60;99.90;;;;;;4998919;28;20037;-72
2023/10/08 00:57:21;;;;;;;9.57;5.07;;;15.60;99.90;;;;;;4989765;28;20038;-71
2023/10/08 00:59:53;;;;;;;9.57;4.95;;;15.50;99.90;;;;;;4996448;28;20435;-72
2023/10/08 01:03:00;;;;;;;12.73;5.43;;;15.50;99.90;;;;;;4991212;28;20475;-72
2023/10/08 01:05:25;;;;;;;10.93;5.78;;;15.60;99.90;;;;;;4991572;28;20042;-72
2023/10/08 01:07:53;;;;;;;12.38;5.78;;;15.70;99.90;;;;;;4992076;28;20085;-72
2023/10/08 01:10:24;;;;;;;12.10;5.65;;;15.70;99.90;;;;;;4989355;28;20038;-72
2023/10/08 01:13:04;;;;;;;11.48;5.45;;;15.80;99.90;;;;;;4990055;28;20046;-73
2023/10/08 01:15:30;;;;;;;9.75;5.68;;;15.70;99.90;;;;;;4990011;28;20031;-73
2023/10/08 01:18:14;;;;;;;9.85;6.03;;;15.70;99.90;;;;;;4993802;28;20049;-72
2023/10/08 01:23:17;;;;;;;10.00;5.72;;;15.60;99.90;;;;;;4991610;28;20702;-71
2023/10/08 01:25:50;;;;;;;11.63;5.07;;;15.60;99.90;;;;;;4991634;28;20018;-72
2023/10/08 01:28:25;;;;;;;10.25;4.85;;;15.60;99.90;;;;;;4996658;28;20034;-72
2023/10/08 01:30:57;;;;;;;9.50;4.63;;;15.40;99.90;;;;;;4990998;28;20026;-72
2023/10/08 01:33:27;;;;;;;10.07;5.03;;;15.90;99.90;;;;;;4996711;28;20053;-72
2023/10/08 01:35:53;;;;;;;10.73;5.05;;;16.20;99.90;;;;;;4991969;28;20835;-72
2023/10/08 01:38:23;;;;;;;10.10;4.82;;;16.20;99.90;;;;;;5000869;28;20069;-72
2023/10/08 01:40:52;;;;;;;11.88;5.30;;;16.10;99.90;;;;;;4989378;28;20022;-72
2023/10/08 01:43:20;;;;;;;11.30;4.70;;;15.80;99.90;;;;;;4991216;28;20465;-72
2023/10/08 01:45:49;;;;;;;9.60;4.13;;;15.70;99.90;;;;;;4996907;28;20550;-72
2023/10/08 01:48:37;;;;;;;7.82;4.32;;;15.60;99.90;;;;;;4994531;28;20090;-72
2023/10/08 01:51:04;;;;;;;9.65;4.80;;;15.60;99.90;;;;;;4998380;28;20045;-72
2023/10/08 01:53:31;;;;;;;10.82;4.90;;;15.50;99.90;;;;;;4987363;28;20034;-71
2023/10/08 01:55:58;;;;;;;10.70;5.03;;;15.50;99.90;;;;;;4988970;28;20060;-71
2023/10/08 01:58:23;;;;;;;8.80;4.75;;;15.50;99.90;;;;;;4989054;28;20030;-71
2023/10/08 02:00:52;;;;;;;10.27;4.65;;;15.60;99.90;;;;;;4997839;28;20051;-71
2023/10/08 02:03:18;;;;;;;9.18;4.72;;;15.60;99.90;;;;;;4996205;28;20042;-72
2023/10/08 02:05:47;;;;;;;6.38;3.60;;;15.60;99.90;;;;;;4989978;28;20026;-72
2023/10/08 02:08:14;;;;;;;7.30;3.95;;;15.50;99.90;;;;;;4995726;28;20030;-72
2023/10/08 02:10:41;;;;;;;7.55;3.83;;;15.50;99.90;;;;;;4992788;28;20022;-71
2023/10/08 02:13:08;;;;;;;9.18;4.20;;;15.40;99.90;;;;;;4999791;28;20041;-72
2023/10/08 02:15:36;;;;;;;8.30;4.85;;;15.70;99.90;;;;;;4990347;28;20042;-72
2023/10/08 02:18:03;;;;;;;8.60;4.30;;;15.80;99.90;;;;;;5001590;28;20049;-72
2023/10/08 02:20:29;;;;;;;7.88;4.07;;;15.70;99.90;;;;;;4995336;28;20461;-73
2023/10/08 02:22:55;;;;;;;7.45;4.15;;;15.60;99.90;;;;;;4989438;28;20034;-72
2023/10/08 02:25:20;;;;;;;8.18;4.38;;;15.50;99.90;;;;;;4992380;28;20042;-72
2023/10/08 02:27:47;;;;;;;7.00;3.72;;;15.50;99.90;;;;;;4991250;28;20041;-72
2023/10/08 02:30:13;;;;;;;7.35;4.43;;;15.50;99.90;;;;;;4997090;28;20034;-72
2023/10/08 02:32:42;;;;;;;8.20;4.07;;;15.50;99.90;;;;;;4997141;28;20033;-71
2023/10/08 02:35:11;;;;;;;9.60;4.18;;;15.60;99.90;;;;;;4994130;28;20121;-72
2023/10/08 02:37:39;;;;;;;8.93;4.03;;;15.70;99.90;;;;;;4986067;28;20105;-72
2023/10/08 02:43:08;;;;;;;10.05;4.93;;;15.60;99.90;;;;;;4980922;28;20049;-72
2023/10/08 02:45:38;;;;;;;9.18;4.30;;;15.50;99.90;;;;;;5000553;28;20022;-72
2023/10/08 02:48:11;;;;;;;12.10;4.35;;;15.50;99.90;;;;;;5003341;28;20050;-72
2023/10/08 02:50:39;;;;;;;9.60;4.37;;;15.40;99.90;;;;;;4995197;28;20057;-72
2023/10/08 02:53:11;;;;;;;10.75;4.45;;;15.30;99.90;;;;;;4995508;28;20034;-74
2023/10/08 02:55:43;;;;;;;8.35;4.47;;;15.50;99.90;;;;;;5001052;28;20173;-72
2023/10/08 02:58:15;;;;;;;8.63;4.43;;;15.50;99.90;;;;;;4992373;28;20512;-72
2023/10/08 03:00:48;;;;;;;9.95;4.15;;;15.50;99.90;;;;;;4990529;28;20054;-71
2023/10/08 03:03:22;;;;;;;7.72;4.20;;;15.40;99.90;;;;;;4994299;28;20045;-71
2023/10/08 03:05:56;;;;;;;6.97;4.15;;;15.60;99.90;;;;;;4988664;28;20117;-71
2023/10/08 03:08:23;;;;;;;7.13;3.55;;;15.90;99.90;;;;;;4988182;28;20030;-71
2023/10/08 03:10:50;;;;;;;11.20;4.25;;;15.70;99.90;;;;;;4990388;28;20072;-71
2023/10/08 03:13:17;;;;;;;10.98;3.90;;;15.60;99.90;;;;;;4995534;28;20542;-72
2023/10/08 03:15:50;;;;;;;8.95;4.15;;;15.60;99.90;;;;;;4987997;28;20030;-72
2023/10/08 03:18:21;;;;;;;9.15;4.30;;;15.50;99.90;;;;;;4985410;28;20036;-72
2023/10/08 03:20:49;;;;;;;8.95;4.25;;;15.60;99.90;;;;;;4993173;28;20821;-71
2023/10/08 03:23:33;;;;;;;9.35;4.38;;;15.60;99.90;;;;;;4991320;28;20049;-73
2023/10/08 03:26:09;;;;;;;8.02;4.00;;;15.50;99.90;;;;;;4995174;28;20034;-72
2023/10/08 03:28:35;;;;;;;9.50;4.03;;;15.60;99.90;;;;;;4997228;28;20026;-71
2023/10/08 03:31:04;;;;;;;9.00;3.67;;;15.70;99.90;;;;;;4991258;28;20537;-72
2023/10/08 03:33:35;;;;;;;9.13;3.38;;;15.60;99.90;;;;;;4984677;28;20118;-72
2023/10/08 03:36:09;;;;;;;8.77;4.57;;;15.60;99.90;;;;;;4984338;28;20042;-71
2023/10/08 03:38:44;;;;;;;;;;;15.50;99.90;;;;;;4992258;28;20042;-71
2023/10/08 03:41:16;;;;;;;11.40;4.25;;;15.40;99.90;;;;;;4985334;28;20014;-72
2023/10/08 03:44:01;;;;;;;9.10;4.10;;;15.60;99.90;;;;;;4986581;28;20019;-71
2023/10/08 03:46:31;;;;;;;9.27;4.30;;;15.80;99.90;;;;;;4993032;28;20080;-71
2023/10/08 03:49:04;;;;;;;7.35;3.80;;;15.50;99.90;;;;;;4986865;28;20026;-72
2023/10/08 03:51:35;;;;;;;11.30;4.50;;;15.40;99.90;;;;;;4992967;28;20041;-73
2023/10/08 03:56:48;;;;;;;7.93;3.95;;;15.50;99.90;;;;;;4976387;28;20527;-72
2023/10/08 04:04:49;;;;;;;7.57;3.63;;;15.70;99.90;;;;;;4964337;28;20062;-72
2023/10/08 04:07:28;;;;;;;17.10;4.40;;;15.60;99.90;;;;;;4990846;28;20385;-72
2023/10/08 04:12:43;;;;;;;7.40;4.03;;;15.10;99.90;;;;;;4989004;28;20129;-72
2023/10/08 04:15:12;;;;;;;12.00;4.55;;;15.40;99.90;;;;;;4989182;28;20037;-72
2023/10/08 04:17:44;;;;;;;11.65;3.83;;;15.20;99.90;;;;;;4984306;28;20088;-71
2023/10/08 04:22:59;;;;;;;12.52;4.20;;;15.00;99.90;;;;;;4985735;28;20104;-72
2023/10/08 04:25:29;;;;;;;10.43;3.78;;;15.00;99.90;;;;;;4995829;28;20022;-72
2023/10/08 04:27:58;;;;;;;8.50;4.15;;;15.00;99.90;;;;;;4996459;28;20030;-71
2023/10/08 04:30:35;;;;;;;8.30;4.03;;;15.30;99.90;;;;;;4992621;28;20026;-72
2023/10/08 04:33:07;;;;;;;7.85;3.42;;;15.20;99.90;;;;;;4991158;28;20173;-73
2023/10/08 04:35:37;;;;;;;7.95;3.83;;;15.10;99.90;;;;;;4986100;28;20034;-70
2023/10/08 04:38:08;;;;;;;9.63;4.00;;;15.30;99.90;;;;;;4992206;28;20045;-73
2023/10/08 04:40:47;;;;;;;9.52;4.38;;;15.30;99.90;;;;;;4983962;28;20034;-72
2023/10/08 04:43:37;;;;;;;9.85;4.20;;;15.30;99.90;;;;;;4993375;28;20037;-72
2023/10/08 04:46:19;;;;;;;7.68;3.10;;;15.40;99.90;;;;;;4988161;28;20037;-71
2023/10/08 04:48:49;;;;;;;12.55;3.90;;;15.40;99.90;;;;;;4992640;28;20265;-72
2023/10/08 04:51:17;;;;;;;11.27;3.50;;;15.40;99.90;;;;;;4982671;28;20061;-71
2023/10/08 04:53:45;;;;;;;11.05;4.43;;;15.30;99.90;;;;;;4989517;28;20125;-71
2023/10/08 04:56:18;;;;;;;10.95;4.03;;;15.20;99.90;;;;;;4983826;28;20101;-71
2023/10/08 04:58:47;;;;;;;7.50;3.45;;;15.30;99.90;;;;;;4996976;28;20556;-72
2023/10/08 05:01:18;;;;;;;7.47;3.22;;;15.10;99.90;;;;;;4986851;28;20046;-71
2023/10/08 05:09:12;;;;;;;7.47;3.20;;;14.60;99.90;;;;;;4986188;28;20043;-72
2023/10/08 05:14:38;;;;;;;10.52;4.43;;;14.50;99.90;;;;;;4967656;28;20050;-72
2023/10/08 05:27:56;;;;;;;11.40;3.92;;;15.10;99.90;;;;;;4984403;28;20638;-73
2023/10/08 05:30:41;;;;;;;10.15;3.70;;;14.90;99.90;;;;;;5001565;28;20021;-72
2023/10/08 05:33:46;;;;;;;9.63;3.33;;;15.20;99.90;;;;;;4983081;28;20053;-72
2023/10/08 05:36:18;;;;;;;9.52;3.95;;;15.10;99.90;;;;;;4981385;28;20026;-72
2023/10/08 05:39:00;;;;;;;12.65;4.25;;;15.10;99.90;;;;;;4984806;28;20038;-72
2023/10/08 05:41:51;;;;;;;6.90;3.15;;;15.00;99.90;;;;;;4989399;28;20026;-72
2023/10/08 05:49:38;;;;;;;13.52;4.18;;;14.90;99.90;;;;;;4990278;28;20394;-71
2023/10/08 06:00:17;;;;;;;10.05;4.43;;;14.90;99.90;;;;;;4990833;28;20052;-71
2023/10/08 06:13:29;;;;;;;12.50;3.95;;;14.80;99.90;;;;;;4984664;28;20096;-69
2023/10/08 06:18:29;;;;;;;8.20;3.40;;;15.10;99.90;;;;;;4985024;28;20038;-71
2023/10/08 06:21:00;;;;;;;8.13;3.95;;;15.20;99.90;;;;;;4976543;28;20049;-71
2023/10/08 06:23:29;;;;;;;9.05;3.53;;;15.40;99.90;;;;;;4985895;28;20036;-71
2023/10/08 06:25:58;;;;;;;7.55;3.83;;;15.40;99.90;;;;;;4997415;28;20108;-72
2023/10/08 06:28:26;;;;;;;9.02;3.28;;;15.30;99.90;;;;;;4991293;28;24828;-72
2023/10/08 06:30:56;;;;;;;10.65;3.60;;;15.30;99.90;;;;;;4987710;28;20030;-72
2023/10/08 06:33:30;;;;;;;7.53;3.65;;;15.10;99.90;;;;;;4994697;28;20042;-72
2023/10/08 06:36:02;;;;;;;11.93;3.72;;;15.10;99.90;;;;;;4996160;28;20048;-72
2023/10/08 06:38:34;;;;;;;8.38;3.92;;;15.00;99.90;;;;;;4992016;28;20034;-72
2023/10/08 06:43:45;;;;;;;10.30;3.50;;;15.00;99.90;;;;;;4989605;28;20060;-72
2023/10/08 06:46:13;;;;;;;10.30;3.45;;;14.90;99.90;;;;;;4989133;28;20030;-72
2023/10/08 06:48:42;;;;;;;8.88;3.28;;;14.90;99.90;;;;;;4989579;28;20026;-73
2023/10/08 06:51:12;;;;;;;11.18;3.45;;;14.90;99.90;;;;;;4988407;28;20022;-72
2023/10/08 06:53:39;;;;;;;9.38;3.30;;;14.90;99.90;;;;;;4995677;28;20034;-72
2023/10/08 06:56:05;;;;;;;9.55;3.42;;;15.10;99.90;;;;;;4998427;28;20033;-73
2023/10/08 06:58:34;;;;;;;15.45;4.03;;;15.10;99.90;;;;;;4989425;28;20065;-73
2023/10/08 07:01:08;;;;;;;8.10;3.45;;;15.20;99.90;;;;;;4993626;28;20508;-72
2023/10/08 07:03:35;;;;;;;12.77;4.03;;;15.20;99.90;;;;;;4996673;28;20036;-72
2023/10/08 07:06:16;;;;;;;9.95;3.55;;;15.40;99.90;;;;;;5001798;28;20030;-74
2023/10/08 07:08:46;;;;;;;8.00;3.25;;;15.60;99.90;;;;;;4989009;28;20105;-73
2023/10/08 07:11:12;;;;;;;8.90;3.78;;;15.80;99.90;;;;;;4987976;28;20046;-74
2023/10/08 07:13:42;;;;;;;9.65;3.88;;;15.80;99.90;;;;;;4986839;28;20023;-73
2023/10/08 07:16:11;;;;;;;15.55;4.32;;;15.70;99.90;;;;;;4993107;28;20126;-73
2023/10/08 07:18:41;;;;;;;14.32;5.20;;;15.70;99.90;;;;;;4992823;28;20516;-74
2023/10/08 07:21:13;;;;;;;10.10;3.95;;;15.60;99.90;;;;;;4988945;28;20081;-73
2023/10/08 07:26:37;;;;;;;14.50;3.75;;;15.50;99.90;;;;;;4970264;28;20155;-73
2023/10/08 07:29:08;;;;;;;9.05;4.03;;;15.40;99.90;;;;;;4989678;28;21034;-73
2023/10/08 07:31:36;;;;;;;8.88;3.42;;;15.50;99.90;;;;;;4993242;28;20032;-73
2023/10/08 07:34:15;;;;;;;8.25;3.53;;;15.30;99.90;;;;;;4995092;28;20026;-73
2023/10/08 07:36:43;;;;;;;9.20;3.83;;;15.30;99.90;;;;;;4986838;28;20045;-73
2023/10/08 07:39:22;;;;;;;14.30;4.50;;;15.40;99.90;;;;;;4988008;28;20078;-74
2023/10/08 07:41:49;;;;;;;10.40;4.13;;;15.50;99.90;;;;;;4992470;28;20491;-73
2023/10/08 07:44:15;;;;;;;14.20;4.60;;;15.70;99.90;;;;;;4992436;28;20800;-73
2023/10/08 07:46:41;;;;;;;9.38;4.22;;;15.60;99.90;;;;;;4994927;28;20061;-73
2023/10/08 07:49:06;;;;;;;17.73;4.68;;;15.60;99.90;;;;;;4989913;28;20100;-75
2023/10/08 07:51:33;;;;;;;9.32;3.67;;;15.60;99.90;;;;;;5005595;28;20604;-73
2023/10/08 07:53:59;;;;;;;16.73;4.65;;;15.70;99.90;;;;;;4989758;28;20042;-75
2023/10/08 07:56:25;;;;;;;13.57;3.83;;;15.70;99.90;;;;;;4995072;28;20045;-73
2023/10/08 07:58:52;;;;;;;12.13;4.00;;;15.80;99.90;;;;;;4988337;28;20495;-73
2023/10/08 08:01:20;;;;;;;10.98;3.75;;;15.90;99.90;;;;;;4975267;28;20038;-73
2023/10/08 08:03:48;;;;;;;10.95;4.15;;;15.90;99.90;;;;;;4986854;28;20493;-73
2023/10/08 08:06:15;;;;;;;9.57;3.67;;;16.00;99.90;;;;;;4986802;28;20175;-73
2023/10/08 08:08:41;;;;;;;11.77;4.82;;;16.00;99.90;;;;;;4989430;28;20033;-73
2023/10/08 08:11:17;;;;;;;8.93;3.42;;;16.10;99.90;;;;;;4996801;28;20034;-73
2023/10/08 08:13:45;;;;;;;10.25;4.05;;;16.20;99.90;;;;;;4990401;28;20019;-73
2023/10/08 08:16:16;;;;;;;12.95;4.80;;;16.30;99.90;;;;;;4990760;28;20624;-73
2023/10/08 08:18:46;;;;;;;9.90;4.15;;;16.30;99.90;;;;;;4989193;28;20208;-73
2023/10/08 08:21:16;;;;;;;12.70;5.43;;;16.40;99.90;;;;;;5008427;28;20041;-73
2023/10/08 08:23:47;;;;;;;11.82;4.03;;;16.40;99.90;;;;;;5010403;28;20029;-73
2023/10/08 08:26:26;;;;;;;22.17;5.30;;;16.50;99.90;;;;;;5006000;28;20106;-73
2023/10/08 08:28:56;;;;;;;12.30;4.38;;;16.40;99.90;;;;;;4991819;28;20101;-74
2023/10/08 08:31:25;;;;;;;12.60;4.57;;;16.50;99.90;;;;;;5009837;28;20080;-73
2023/10/08 08:33:56;;;;;;;13.52;4.93;;;16.50;99.90;;;;;;5009729;28;20033;-73
2023/10/08 08:36:28;;;;;;;8.90;3.72;;;16.60;99.90;;;;;;5008808;28;20030;-73
2023/10/08 08:38:54;;;;;;;9.13;4.07;;;16.80;99.90;;;;;;5009890;28;20116;-73
2023/10/08 08:41:22;;;;;;;16.67;4.32;;;16.90;99.90;;;;;;5009689;28;20508;-73
2023/10/08 08:43:56;;;;;;;17.23;4.72;;;16.90;99.90;;;;;;5009525;28;20065;-73
2023/10/08 08:46:35;;;;;;;12.48;5.32;;;17.00;99.90;;;;;;4993263;28;20074;-72
2023/10/08 08:49:03;;;;;;;10.52;3.75;;;17.10;99.90;;;;;;4990148;28;20392;-73
2023/10/08 08:51:30;;;;;;;13.02;4.10;;;17.20;99.90;;;;;;4995504;28;20499;-73
2023/10/08 08:53:56;;;;;;;12.93;4.13;;;17.30;99.90;;;;;;5007521;28;20048;-72
2023/10/08 08:56:25;;;;;;;12.40;3.83;;;17.50;99.90;;;;;;5008401;28;20046;-72
2023/10/08 08:58:51;;;;;;;11.70;4.00;;;17.60;99.90;;;;;;5009089;28;20026;-72
2023/10/08 09:01:19;;;;;;;12.02;4.13;;;17.70;99.90;;;;;;5009359;28;20065;-73
2023/10/08 09:03:48;;;;;;;12.38;4.07;;;17.70;99.90;;;;;;4996897;28;20069;-72
2023/10/08 09:06:15;;;;;;;14.85;3.58;;;17.80;99.90;;;;;;4989559;28;20061;-74
2023/10/08 09:08:45;;;;;;;8.25;3.15;;;17.80;99.90;;;;;;4988320;28;20030;-73
2023/10/08 09:11:16;;;;;;;10.50;3.53;;;18.00;99.90;;;;;;4985332;28;20042;-72
2023/10/08 09:13:42;;;;;;;14.18;4.70;;;18.10;99.90;;;;;;4986523;28;20469;-72
2023/10/08 09:16:15;;;;;;;7.97;3.70;;;18.20;99.90;;;;;;4988015;28;20041;-72
2023/10/08 09:18:46;;;;;;;11.77;4.22;;;18.20;99.90;;;;;;4985263;28;20042;-73
2023/10/08 09:21:18;;;;;;;10.82;4.57;;;18.20;99.90;;;;;;4985236;28;20029;-72
2023/10/08 09:23:49;;;;;;;9.75;4.22;;;18.50;99.90;;;;;;4986736;28;20023;-72
2023/10/08 09:26:18;;;;;;;8.68;3.72;;;18.50;99.90;;;;;;4991987;28;20034;-73
2023/10/08 09:28:48;;;;;;;15.20;4.85;;;18.60;99.90;;;;;;4987632;28;20485;-72
2023/10/08 09:31:14;;;;;;;14.50;4.70;;;18.50;99.90;;;;;;4993148;28;20064;-72
2023/10/08 09:33:41;;;;;;;19.55;4.72;;;18.70;99.90;;;;;;5000852;28;20030;-72
2023/10/08 09:36:10;;;;;;;16.58;4.38;;;18.80;99.90;;;;;;4985078;28;20026;-73
2023/10/08 09:38:37;;;;;;;31.88;4.88;;;18.80;99.90;;;;;;4981781;28;20477;-73
2023/10/08 09:41:03;;;;;;;13.10;4.40;;;18.70;99.90;;;;;;4985359;28;20026;-73
2023/10/08 09:43:34;;;;;;;8.75;4.15;;;18.70;99.90;;;;;;4984159;28;20160;-73
2023/10/08 09:46:13;;;;;;;12.18;3.60;;;19.00;99.90;;;;;;4989485;28;20030;-74
2023/10/08 09:48:43;;;;;;;10.38;4.45;;;19.30;99.90;;;;;;4984708;28;20022;-73
2023/10/08 09:51:12;;;;;;;10.02;4.50;;;19.50;99.90;;;;;;4991354;28;20030;-74
2023/10/08 09:54:00;;;;;;;13.23;4.82;;;19.90;99.90;;;;;;4986233;28;20034;-73
2023/10/08 09:56:29;;;;;;;20.52;5.15;;;19.70;99.80;;;;;;4992728;28;20037;-73
2023/10/08 09:58:55;;;;;;;14.90;4.40;;;19.50;99.40;;;;;;4983877;28;20092;-74
2023/10/08 10:01:22;;;;;;;15.05;4.55;;;19.50;99.10;;;;;;4991463;28;20072;-73
2023/10/08 10:03:49;;;;;;;19.67;5.22;;;19.50;99.20;;;;;;4992647;28;20041;-73
2023/10/08 10:06:17;;;;;;;12.98;4.68;;;19.50;98.70;;;;;;4984838;28;20061;-73
2023/10/08 10:08:44;;;;;;;18.40;4.55;;;19.60;98.90;;;;;;4986039;28;20034;-73
2023/10/08 10:11:10;;;;;;;10.48;4.03;;;19.70;98.80;;;;;;4994568;28;20126;-73
2023/10/08 10:13:47;;;;;;;23.23;4.50;;;19.70;98.90;;;;;;4985720;28;20046;-73
2023/10/08 10:16:17;;;;;;;13.10;3.83;;;19.80;99.70;;;;;;5004122;28;20077;-76
2023/10/08 10:18:49;;;;;;;13.30;4.55;;;20.10;99.80;;;;;;4984826;28;20109;-73
2023/10/08 10:21:15;;;;;;;22.75;5.38;;;20.10;99.00;;;;;;4988912;28;20112;-72
2023/10/08 10:23:42;;;;;;;23.70;4.32;;;20.20;99.20;;;;;;4987396;28;20109;-72
2023/10/08 10:26:40;;;;;;;16.67;5.22;;;20.20;98.80;;;;;;4985405;28;20089;-72
2023/10/08 10:29:14;;;;;;;17.63;4.93;;;20.30;99.10;;;;;;5002168;28;20029;-72
2023/10/08 10:31:52;;;;;;;13.48;4.45;;;20.40;98.80;;;;;;4990348;28;20154;-73
2023/10/08 10:34:28;;;;;;;10.05;4.43;;;20.40;98.40;;;;;;4991061;28;20081;-72
2023/10/08 10:36:56;;;;;;;24.55;5.07;;;20.60;98.50;;;;;;4993227;28;20042;-74
2023/10/08 10:39:27;;;;;;;11.77;4.60;;;20.70;99.00;;;;;;4993022;28;20101;-72
2023/10/08 10:41:57;;;;;;;15.52;4.55;;;20.80;98.00;;;;;;4989813;28;20040;-72
2023/10/08 10:44:26;;;;;;;13.63;4.22;;;20.90;98.70;;;;;;4993349;28;20041;-72
2023/10/08 10:46:52;;;;;;;11.15;4.43;;;20.90;98.00;;;;;;4985350;28;23436;-72
2023/10/08 10:49:21;;;;;;;14.38;4.53;;;21.00;97.70;;;;;;4984191;28;20037;-72
2023/10/08 10:52:03;;;;;;;12.80;4.95;;;21.00;98.00;;;;;;4986449;28;21011;-72
2023/10/08 10:54:36;;;;;;;18.50;4.65;;;21.10;97.50;;;;;;4993897;28;20104;-72
2023/10/08 10:57:07;;;;;;;23.83;4.53;;;21.20;98.40;;;;;;4988010;28;20032;-74
2023/10/08 10:59:39;;;;;;;16.05;4.45;;;21.60;97.80;;;;;;4989213;28;20157;-72
2023/10/08 11:02:07;;;;;;;9.98;4.20;;;21.80;97.80;;;;;;4988602;28;20559;-72
2023/10/08 11:04:45;;;;;;;10.00;4.05;;;21.60;97.30;;;;;;4982521;28;20018;-72
2023/10/08 11:07:12;;;;;;;10.95;4.45;;;21.50;97.50;;;;;;4986637;28;20574;-72
2023/10/08 11:09:38;;;;;;;16.92;4.68;;;21.70;97.30;;;;;;4986823;28;20118;-72
2023/10/08 11:12:14;;;;;;;15.30;7.22;;;22.00;98.10;;;;;;4997147;28;20068;-74
2023/10/08 11:14:46;;;;;;;13.73;5.47;;;22.30;98.10;;;;;;4990736;28;20399;-71
2023/10/08 11:17:19;;;;;;;11.43;4.40;;;22.40;98.10;;;;;;4993784;28;20068;-72
2023/10/08 11:19:48;;;;;;;10.95;4.63;;;22.40;96.90;;;;;;4989153;28;20048;-72
2023/10/08 11:22:18;;;;;;;12.00;5.80;;;22.30;97.70;;;;;;4990140;28;20030;-72
2023/10/08 11:24:48;;;;;;;9.35;5.15;;;22.50;97.90;;;;;;4989107;28;20030;-72
2023/10/08 11:27:28;;;;;;;10.50;5.35;;;22.60;96.80;;;;;;4984144;28;20022;-72
2023/10/08 11:29:59;;;;;;;10.70;3.50;;;22.60;97.00;;;;;;4983824;28;20026;-73
2023/10/08 11:32:26;;;;;;;13.00;4.47;;;22.70;96.90;;;;;;4993705;28;20526;-72
2023/10/08 11:34:59;;;;;;;12.68;4.57;;;22.70;95.90;;;;;;4990460;28;20041;-71
2023/10/08 11:37:29;;;;;;;8.75;3.55;;;22.80;95.90;;;;;;4987087;28;20057;-71
2023/10/08 11:39:59;;;;;;;13.32;4.80;;;22.80;95.80;;;;;;4990593;28;20039;-72
2023/10/08 11:45:02;;;;;;;9.57;4.28;;;23.20;95.70;;;;;;4985440;28;20061;-71
2023/10/08 11:47:35;;;;;;;10.10;3.25;;;23.30;96.30;;;;;;4973761;28;20026;-73
2023/10/08 11:50:11;;;;;;;10.30;3.97;;;23.30;95.10;;;;;;4984543;28;20028;-72
2023/10/08 11:52:41;;;;;;;15.15;4.72;;;23.30;95.20;;;;;;4988999;28;20797;-72
2023/10/08 11:55:08;;;;;;;13.27;4.68;;;23.40;95.40;;;;;;4989641;28;20097;-73
2023/10/08 11:57:35;;;;;;;11.07;4.53;;;23.20;94.50;;;;;;4988615;28;20089;-73
2023/10/08 12:00:16;;;;;;;14.07;4.20;;;23.40;95.20;;;;;;4992341;28;20132;-73
2023/10/08 12:02:43;;;;;;;10.57;4.07;;;23.40;95.00;;;;;;4993110;28;20375;-73
2023/10/08 12:05:18;;;;;;;10.43;3.90;;;23.60;94.20;;;;;;4990413;28;20115;-73
2023/10/08 12:07:48;;;;;;;15.30;4.65;;;23.80;95.40;;;;;;4986574;28;20042;-73
2023/10/08 12:10:21;;;;;;;9.65;4.25;;;23.80;95.30;;;;;;4995474;28;20041;-73
2023/10/08 12:12:48;;;;;;;14.40;4.07;;;23.50;94.50;;;;;;4995385;28;20022;-72
2023/10/08 12:15:19;;;;;;;25.67;5.10;;;23.60;95.00;;;;;;4997654;28;20030;-72
2023/10/08 12:17:53;;;;;;;16.77;4.30;;;23.70;94.70;;;;;;4990692;28;20117;-73
2023/10/08 12:20:26;;;;;;;25.13;5.45;;;23.70;94.90;;;;;;4990493;28;20026;-71
2023/10/08 12:22:52;;;;;;;17.55;5.28;;;24.20;95.30;;;;;;4993744;28;20036;-72
2023/10/08 12:25:18;;;;;;;15.00;4.53;;;24.20;94.50;;;;;;4993316;28;20056;-73
2023/10/08 12:27:43;;;;;;;21.35;5.75;;;24.00;94.50;;;;;;4994909;28;20109;-72
2023/10/08 12:30:10;;;;;;;17.20;5.95;;;23.70;95.10;;;;;;4991574;28;20438;-72
2023/10/08 12:32:42;;;;;;;19.35;4.70;;;23.50;95.40;;;;;;4996201;28;20029;-73
2023/10/08 12:35:14;;;;;;;19.63;5.10;;;23.60;95.30;;;;;;4987555;28;20046;-71
2023/10/08 12:37:40;;;;;;;9.50;4.22;;;23.90;95.40;;;;;;4995747;28;20646;-72
2023/10/08 12:40:22;;;;;;;13.25;4.28;;;24.00;94.50;;;;;;5005501;28;20060;-72
2023/10/08 12:42:51;;;;;;;13.00;4.63;;;23.70;94.90;;;;;;5002974;28;20052;-71
2023/10/08 12:45:20;;;;;;;18.63;6.47;;;23.50;94.70;;;;;;5005112;28;20034;-71
2023/10/08 12:47:50;;;;;;;25.65;6.05;;;23.60;94.90;;;;;;5008755;28;20497;-70
2023/10/08 12:50:42;;;;;;;13.85;4.50;;;23.70;95.40;;;;;;5009210;28;20480;-70
2023/10/08 12:53:11;;;;;;;23.20;5.35;;;23.90;95.60;;;;;;5006629;28;20057;-70
2023/10/08 12:55:40;;;;;;;39.80;6.53;;;24.20;95.90;;;;;;4990884;28;20417;-70
2023/10/08 12:58:09;;;;;;;15.23;4.63;;;24.10;95.90;;;;;;4990752;28;20062;-70
2023/10/08 13:00:38;;;;;;;10.82;4.47;;;23.90;95.40;;;;;;5006038;28;20054;-70
2023/10/08 13:03:22;;;;;;;8.98;3.72;;;23.60;95.50;;;;;;4999072;28;20036;-72
2023/10/08 13:05:52;;;;;;;11.50;4.15;;;23.50;95.60;;;;;;5001550;28;20051;-72
2023/10/08 13:08:21;;;;;;;12.52;4.55;;;23.50;95.60;;;;;;5005219;28;20029;-71
2023/10/08 13:10:47;;;;;;;12.32;4.93;;;23.40;95.90;;;;;;5002985;28;20495;-71
2023/10/08 13:13:13;;;;;;;20.13;5.35;;;23.30;96.40;;;;;;5006190;28;20033;-71
2023/10/08 13:15:41;;;;;;;12.00;4.20;;;23.30;95.60;;;;;;5005701;28;20042;-71
2023/10/08 13:18:07;;;;;;;15.23;4.88;;;23.30;96.50;;;;;;5008303;28;20615;-71
2023/10/08 13:20:34;;;;;;;10.00;3.63;;;23.30;96.60;;;;;;5008921;28;20125;-72
2023/10/08 13:23:06;;;;;;;16.33;4.00;;;23.20;97.00;;;;;;5007617;28;20041;-71
2023/10/08 13:25:35;;;;;;;16.90;3.97;;;23.10;97.80;;;;;;4990671;28;20593;-73
2023/10/08 13:28:02;;;;;;;11.20;3.58;;;22.90;98.10;;;;;;5003168;28;20022;-72
2023/10/08 13:30:27;;;;;;;11.27;3.90;;;22.80;99.30;;;;;;4997671;28;20023;-72
2023/10/08 13:32:53;;;;;;;16.25;4.72;;;22.80;99.30;;;;;;4990556;28;20037;-72
2023/10/08 13:35:19;;;;;;;12.85;4.60;;;23.10;99.50;;;;;;5008313;28;20113;-73
2023/10/08 13:37:48;;;;;;;10.70;4.28;;;23.30;98.10;;;;;;5007406;28;20033;-72
2023/10/08 13:40:15;;;;;;;12.65;4.20;;;23.50;97.40;;;;;;5009081;28;20058;-72
2023/10/08 13:42:42;;;;;;;12.15;4.65;;;23.80;97.50;;;;;;5008215;28;20025;-72
2023/10/08 13:45:09;;;;;;;17.50;4.50;;;24.10;97.70;;;;;;5001929;28;20031;-73
2023/10/08 13:47:35;;;;;;;18.58;4.38;;;24.30;96.60;;;;;;4988438;28;20037;-72
2023/10/08 13:50:09;;;;;;;12.73;3.90;;;24.30;96.90;;;;;;5000445;28;20034;-72
2023/10/08 13:52:38;;;;;;;16.27;4.90;;;24.20;96.80;;;;;;5004053;28;20404;-72
2023/10/08 13:55:06;;;;;;;14.38;4.30;;;24.30;96.90;;;;;;5007237;28;20109;-73
2023/10/08 13:57:33;;;;;;;12.70;4.72;;;24.30;96.30;;;;;;5005981;28;20042;-72
2023/10/08 14:00:00;;;;;;;14.00;4.00;;;24.10;96.00;;;;;;5006263;28;20502;-72
2023/10/08 14:02:25;;;;;;;14.45;4.35;;;24.20;97.10;;;;;;5007823;28;20041;-72
2023/10/08 14:04:53;;;;;;;13.50;3.72;;;24.10;96.30;;;;;;5006928;28;20022;-73
2023/10/08 14:07:19;;;;;;;14.80;4.30;;;24.10;96.40;;;;;;5007007;28;20030;-72
2023/10/08 14:09:47;;;;;;;16.67;4.15;;;24.20;96.90;;;;;;5007499;28;20116;-72
2023/10/08 14:12:13;;;;;;;14.32;4.30;;;24.30;96.80;;;;;;5008352;28;20069;-72
2023/10/08 14:14:48;;;;;;;17.52;5.13;;;24.10;96.50;;;;;;5007603;28;20065;-72
2023/10/08 14:17:39;;;;;;;10.98;3.75;;;24.10;96.40;;;;;;5006349;28;20481;-72
2023/10/08 14:20:08;;;;;;;17.13;4.95;;;24.30;96.20;;;;;;5005092;28;20500;-72